WetterOnline ( https://www.wetteronline.de )

Wetter aktuell Himmelweiler

Aktuelles Wetter: Ulm-Mähringen (592m)

6-stündlich | Neueste Meldungen
Ortszeit Temperatur Wetter
So, 17.10. 2:00 1.0° C fast wolkenlos
Sa, 16.10. 20:00 5.6° C wolkenlos
Sa, 16.10. 14:00 10.6° C bedeckt
Sa, 16.10. 8:00 5.5° C bedeckt
Sa, 16.10. 2:00 3.0° C wolkig
Fr, 15.10. 20:00 8.1° C wolkig
Fr, 15.10. 14:00 13.5° C leicht bewölkt
Fr, 15.10. 8:00 -1.3° C leicht bewölkt
Ortszeit Temperatur Wetter
So, 17.10. 3:30 0.2° C wolkig
So, 17.10. 3:20 0.2° C wolkig
So, 17.10. 3:10 0.3° C Nebel
So, 17.10. 3:00 1.1° C leicht bewölkt
So, 17.10. 2:50 1.1° C leicht bewölkt
So, 17.10. 2:40 0.9° C fast wolkenlos
So, 17.10. 2:30 0.7° C wolkenlos
So, 17.10. 2:00 1.0° C fast wolkenlos
So, 17.10. 1:30 1.0° C wolkenlos
So, 17.10. 1:00 1.6° C wolkenlos
So, 17.10. 0:30 1.7° C wolkenlos
Ortszeit Relative Feuchte Sichtweite
So, 17.10. 2:00 100% 3.8 km
Sa, 16.10. 20:00 95% 10 km
Sa, 16.10. 14:00 75% 45 km
Sa, 16.10. 8:00 96% 7 km
Sa, 16.10. 2:00 97% 9 km
Fr, 15.10. 20:00 86% 40 km
Fr, 15.10. 14:00 62% 45 km
Fr, 15.10. 8:00 96% 15 km
Ortszeit Relative Feuchte Sichtweite
So, 17.10. 3:30 99% 2.2 km
So, 17.10. 3:20 99% -
So, 17.10. 3:10 99% -
So, 17.10. 3:00 99% 2.6 km
So, 17.10. 2:50 99% -
So, 17.10. 2:40 99% -
So, 17.10. 2:30 99% 2.6 km
So, 17.10. 2:00 100% 3.8 km
So, 17.10. 1:30 98% 2.6 km
So, 17.10. 1:00 99% 2.4 km
So, 17.10. 0:30 98% 1.9 km
Ortszeit Niederschlagsmenge Niederschlagsart
So, 17.10. 2:00 0.0 l/m2 in 6 Std. -
Sa, 16.10. 20:00 0.0 l/m2 in 12 Std. -
Sa, 16.10. 14:00 0.0 l/m2 in 6 Std. -
Sa, 16.10. 8:00 0.0 l/m2 in 12 Std. -
Sa, 16.10. 2:00 0.0 l/m2 in 6 Std. -
Fr, 15.10. 20:00 0.0 l/m2 in 12 Std. -
Fr, 15.10. 14:00 0.0 l/m2 in 6 Std. -
Fr, 15.10. 8:00 0.0 l/m2 in 12 Std. -
Ortszeit Niederschlagsmenge Niederschlagsart
So, 17.10. 3:30 0.0 l/m2 in 1 Std. -
So, 17.10. 3:20 keine Meldung -
So, 17.10. 3:10 keine Meldung -
So, 17.10. 3:00 0.0 l/m2 in 1 Std. -
So, 17.10. 2:50 keine Meldung -
So, 17.10. 2:40 keine Meldung -
So, 17.10. 2:30 0.0 l/m2 in 1 Std. -
So, 17.10. 2:00 0.0 l/m2 in 1 Std. -
So, 17.10. 1:30 0.0 l/m2 in 1 Std. -
So, 17.10. 1:00 0.0 l/m2 in 1 Std. -
So, 17.10. 0:30 0.0 l/m2 in 1 Std. -
Ortszeit Stärke Spitze Richtung
km/h Bft. km/h Grad Sektor
So, 17.10. 2:00 4 1 7 310° NW
Sa, 16.10. 20:00 2 1 20 270° W
Sa, 16.10. 14:00 11 2 18 90° O
Sa, 16.10. 8:00 4 1 7 300° NW
Sa, 16.10. 2:00 4 1 7 280° W
Fr, 15.10. 20:00 4 1 22 320° NW
Fr, 15.10. 14:00 13 3 22 170° S
Fr, 15.10. 8:00 7 2 11 250° W
Ortszeit Stärke Spitze Richtung
km/h Bft. km/h Grad Sektor
So, 17.10. 3:30 4 1 4 270° W
So, 17.10. 3:20 4 1 - 270° W
So, 17.10. 3:10 4 1 - 270° W
So, 17.10. 3:00 4 1 7 300° NW
So, 17.10. 2:50 4 1 - 300° NW
So, 17.10. 2:40 4 1 - 300° NW
So, 17.10. 2:30 4 1 4 290° W
So, 17.10. 2:00 4 1 7 310° NW
So, 17.10. 1:30 4 1 4 280° W
So, 17.10. 1:00 4 1 4 300° NW
So, 17.10. 0:30 2 1 4 270° W
Ortszeit Untergrenze Bedeckung Gattung
total tief tief mittel hoch
So, 17.10. 2:00 10500 m 2/8 0/8 - - -
Sa, 16.10. 20:00 - 0/8 0/8 - - -
Sa, 16.10. 14:00 360 m 8/8 8/8 - - -
Sa, 16.10. 8:00 150 m 8/8 8/8 - - -
Sa, 16.10. 2:00 1500 m 5/8 5/8 - - -
Fr, 15.10. 20:00 2100 m 8/8 1/8 - - -
Fr, 15.10. 14:00 2700 m 4/8 2/8 - - -
Fr, 15.10. 8:00 9000 m 5/8 0/8 - - -
Ortszeit Bedeckungsgrad in Achtel und Wolkenuntergrenze
So, 17.10. 3:30 8(10500m)
So, 17.10. 3:20 8(10500m)
So, 17.10. 3:10 8(10500m)
So, 17.10. 3:00 5(10500m)
So, 17.10. 2:50 5(10500m)
So, 17.10. 2:40 2(10500m)
So, 17.10. 2:30 1(10500m)
So, 17.10. 2:00 2(10500m)
So, 17.10. 1:30 keine Wolken
So, 17.10. 1:00 keine Wolken
So, 17.10. 0:30 keine Wolken
Ortszeit Luftdruck NN (hPa) Tendenz (hPa in 3 Std.)
So, 17.10. 2:00 1023 - 0,4
Sa, 16.10. 20:00 1022 + 0,5
Sa, 16.10. 14:00 1021 - 0,4
Sa, 16.10. 8:00 1022 + 0,1
Sa, 16.10. 2:00 1023 0,0
Fr, 15.10. 20:00 1020 + 1,0
Fr, 15.10. 14:00 1018 - 1,1
Fr, 15.10. 8:00 1023 - 1,0
Ortszeit Luftdruck NN (hPa) Tendenz (hPa in 3 Std.)
So, 17.10. 3:30 1023 - 0,1
So, 17.10. 3:20 1023 keine Meldung
So, 17.10. 3:10 1024 keine Meldung
So, 17.10. 3:00 1024 0,0
So, 17.10. 2:50 1024 keine Meldung
So, 17.10. 2:40 1024 keine Meldung
So, 17.10. 2:30 1024 - 0,3
So, 17.10. 2:00 1023 - 0,4
So, 17.10. 1:30 1023 - 0,5
So, 17.10. 1:00 1023 - 0,4
So, 17.10. 0:30 1023 - 0,2
Ortszeit Schneehöhe (cm)
So, 17.10. 2:00 0
Sa, 16.10. 20:00 0
Sa, 16.10. 14:00 0
Sa, 16.10. 8:00 0
Sa, 16.10. 2:00 0
Fr, 15.10. 20:00 0
Fr, 15.10. 14:00 0
Fr, 15.10. 8:00 0
Ortszeit Schneehöhe (cm)
So, 17.10. 3:30 0
So, 17.10. 3:20 0
So, 17.10. 3:10 0
So, 17.10. 3:00 0
So, 17.10. 2:50 0
So, 17.10. 2:40 0
So, 17.10. 2:30 0
So, 17.10. 2:00 0
So, 17.10. 1:30 0
So, 17.10. 1:00 0
So, 17.10. 0:30 0
Link zu dieser Seite / Seite empfehlen

Das Wetter in ...